Time;durP1;ratioP1;P1;durP2;ratioP2;P2;SDS_P1;SDS_P2;PMS_P1;PMS_P2;Temp;Humidity;BMP_temperature;BMP_pressure;BME280_temperature;BME280_humidity;BME280_pressure;Samples;Min_cycle;Max_cycle;Signal;HPM_P1;HPM_P2
2023/03/16 00:02:17;;;;;;;43.20;19.08;;;;;;;-1.89;100.00;100807.72;5054102;28;20120;-79
2023/03/16 00:04:46;;;;;;;41.47;18.42;;;;;;;-1.98;100.00;100798.91;5054321;28;20045;-79
2023/03/16 00:07:12;;;;;;;39.75;19.52;;;;;;;-1.88;100.00;100800.94;5054270;28;20045;-79
2023/03/16 00:09:41;;;;;;;41.17;18.02;;;;;;;-1.82;100.00;100813.38;5055136;28;20028;-79
2023/03/16 00:12:18;;;;;;;36.88;17.50;;;;;;;-1.82;100.00;100813.38;5055345;28;20021;-80
2023/03/16 00:14:47;;;;;;;33.28;15.80;;;;;;;-1.84;100.00;100813.75;5053175;28;20463;-80
2023/03/16 00:17:17;;;;;;;37.03;16.48;;;;;;;-1.82;100.00;100816.16;5054283;28;20040;-78
2023/03/16 00:19:54;;;;;;;29.58;15.32;;;;;;;-1.78;100.00;100820.56;5052683;28;20029;-78
2023/03/16 00:22:27;;;;;;;31.45;15.25;;;;;;;-1.82;100.00;100808.56;5053930;28;20087;-77
2023/03/16 00:24:53;;;;;;;27.95;14.13;;;;;;;-1.73;100.00;100823.00;5053240;28;20037;-82
2023/03/16 00:27:24;;;;;;;29.73;14.98;;;;;;;-1.72;100.00;100819.00;5052608;28;20032;-80
2023/03/16 00:29:55;;;;;;;34.00;15.45;;;;;;;-1.67;100.00;100826.22;5054064;28;20425;-81
2023/03/16 00:32:27;;;;;;;30.35;15.48;;;;;;;-1.67;100.00;100824.22;5053232;28;20505;-79
2023/03/16 00:34:53;;;;;;;36.30;15.43;;;;;;;-1.68;100.00;100830.19;5054244;28;20043;-80
2023/03/16 00:37:19;;;;;;;34.83;15.40;;;;;;;-1.63;100.00;100825.00;5053167;28;20116;-81
2023/03/16 00:39:59;;;;;;;26.05;14.30;;;;;;;-1.62;100.00;100839.81;5054807;28;20028;-80
2023/03/16 00:42:28;;;;;;;30.73;14.45;;;;;;;-1.65;100.00;100843.41;5054521;28;20355;-80
2023/03/16 00:45:09;;;;;;;29.95;16.67;;;;;;;-1.65;100.00;100840.59;5053124;28;20036;-78
2023/03/16 00:47:35;;;;;;;28.00;14.40;;;;;;;-1.65;100.00;100838.59;5054164;28;20557;-79
2023/03/16 00:50:03;;;;;;;28.25;13.50;;;;;;;-1.67;100.00;100848.63;5053465;28;20481;-78
2023/03/16 00:52:29;;;;;;;30.05;14.10;;;;;;;-1.64;100.00;100847.81;5054138;28;20040;-79
2023/03/16 00:55:02;;;;;;;30.38;14.35;;;;;;;-1.63;100.00;100846.63;5052908;28;20021;-78
2023/03/16 00:57:29;;;;;;;26.10;13.07;;;;;;;-1.59;100.00;100847.44;5054193;28;20037;-79
2023/03/16 00:59:55;;;;;;;25.13;13.23;;;;;;;-1.66;100.00;100831.44;5054453;28;20383;-79
2023/03/16 01:02:23;;;;;;;28.33;13.30;;;;;;;-1.59;100.00;100847.44;5052707;28;20047;-76
2023/03/16 01:04:49;;;;;;;25.40;12.90;;;;;;;-1.60;100.00;100846.63;5051661;28;20112;-80
2023/03/16 01:07:15;;;;;;;32.65;13.80;;;;;;;-1.62;100.00;100857.44;5053069;28;20037;-81
2023/03/16 01:09:49;;;;;;;23.77;12.57;;;;;;;-1.63;100.00;100855.03;5054062;28;20024;-80
2023/03/16 01:12:18;;;;;;;27.42;12.35;;;;;;;-1.62;100.00;100845.44;5053963;28;20467;-80
2023/03/16 01:14:45;;;;;;;28.95;12.15;;;;;;;-1.58;100.00;100863.84;5036351;28;20530;-81
2023/03/16 01:17:16;;;;;;;25.60;12.10;;;;;;;-1.61;100.00;100866.66;5053948;28;20111;-81
2023/03/16 01:19:43;;;;;;;24.23;12.13;;;;;;;-1.65;100.00;100861.00;5036671;28;20379;-81
2023/03/16 01:22:10;;;;;;;27.67;12.43;;;;;;;-1.62;100.00;100863.03;5054106;28;20031;-80
2023/03/16 01:24:36;;;;;;;23.02;12.55;;;;;;;-1.62;100.00;100873.44;5052642;28;20033;-81
2023/03/16 01:27:03;;;;;;;20.13;11.55;;;;;;;-1.64;100.00;100871.03;5035609;28;20479;-80
2023/03/16 01:29:31;;;;;;;21.40;11.18;;;;;;;-1.69;100.00;100873.41;5052511;28;20029;-81
2023/03/16 01:32:01;;;;;;;20.05;11.50;;;;;;;-1.66;100.00;100872.63;5052618;28;20445;-80
2023/03/16 01:34:27;;;;;;;26.52;11.50;;;;;;;-1.93;100.00;100826.53;5019465;28;20064;-82
2023/03/16 01:36:52;;;;;;;20.05;10.65;;;;;;;-1.61;100.00;100880.66;5053694;28;20094;-81
2023/03/16 01:39:19;;;;;;;25.60;11.68;;;;;;;-1.62;100.00;100888.25;5053692;28;20029;-82
2023/03/16 01:41:47;;;;;;;19.70;10.95;;;;;;;-1.60;100.00;100882.25;5053959;28;20063;-80
2023/03/16 01:44:16;;;;;;;26.42;10.65;;;;;;;-1.60;100.00;100888.66;5053563;28;20478;-80
2023/03/16 01:46:43;;;;;;;23.85;10.40;;;;;;;-1.67;100.00;100882.22;5035450;28;20114;-81
2023/03/16 01:49:33;;;;;;;23.92;10.60;;;;;;;-1.61;100.00;100892.66;5053451;28;20025;-79
2023/03/16 01:52:07;;;;;;;21.38;10.68;;;;;;;-1.61;100.00;100883.47;5053112;28;20114;-80
2023/03/16 01:54:51;;;;;;;20.65;9.57;;;;;;;-1.60;100.00;100885.03;5051814;28;20029;-80
2023/03/16 01:57:35;;;;;;;22.35;9.45;;;;;;;-1.59;100.00;100892.25;5051858;28;20033;-78
2023/03/16 02:00:22;;;;;;;22.92;9.82;;;;;;;-1.53;100.00;100895.47;5052025;28;20025;-81
2023/03/16 02:02:56;;;;;;;24.48;9.48;;;;;;;-1.62;100.00;100877.06;5051634;28;20033;-80
2023/03/16 02:05:43;;;;;;;28.35;9.85;;;;;;;-1.67;100.00;100879.44;5050472;28;20033;-81
2023/03/16 02:08:11;;;;;;;20.95;9.00;;;;;;;-1.52;100.00;100892.28;5050831;28;20031;-81
2023/03/16 02:10:37;;;;;;;26.42;10.93;;;;;;;-1.49;100.00;100894.28;5051405;28;20053;-81
2023/03/16 02:13:10;;;;;;;23.10;9.77;;;;;;;-1.48;100.00;100895.91;5051688;28;20057;-80
2023/03/16 02:15:36;;;;;;;21.15;9.48;;;;;;;-1.45;100.00;100894.28;5051728;28;20222;-81
2023/03/16 02:18:03;;;;;;;21.65;8.98;;;;;;;-1.46;100.00;100898.31;5017426;28;20029;-83
2023/03/16 02:20:43;;;;;;;19.40;9.73;;;;;;;-1.40;100.00;100893.91;5050565;28;20040;-80
2023/03/16 02:23:17;;;;;;;21.92;9.80;;;;;;;-1.41;100.00;100895.13;5051635;28;20032;-80
2023/03/16 02:26:21;;;;;;;20.40;9.88;;;;;;;-1.45;100.00;100899.88;5050403;28;20036;-81
2023/03/16 02:29:01;;;;;;;14.07;7.93;;;;;;;-1.50;100.00;100903.06;5051808;28;20459;-79
2023/03/16 02:31:27;;;;;;;18.30;8.48;;;;;;;-1.52;100.00;100900.69;5051781;28;20111;-79
2023/03/16 02:33:54;;;;;;;16.95;9.13;;;;;;;-1.52;100.00;100906.28;5051279;28;20124;-80
2023/03/16 02:36:20;;;;;;;18.73;9.10;;;;;;;-1.55;100.00;100907.06;5052547;28;20394;-80
2023/03/16 02:38:45;;;;;;;21.95;8.43;;;;;;;-1.54;100.00;100905.88;5052704;28;20466;-80
2023/03/16 02:41:16;;;;;;;14.80;8.02;;;;;;;-1.52;100.00;100906.28;5052507;28;20466;-81
2023/03/16 02:44:06;;;;;;;19.40;7.43;;;;;;;-1.48;100.00;100912.72;5051519;28;20037;-80
2023/03/16 02:46:34;;;;;;;13.45;7.00;;;;;;;-1.47;100.00;100910.72;5052464;28;20119;-79
2023/03/16 02:49:26;;;;;;;19.80;8.32;;;;;;;-1.48;100.00;100920.31;5034815;28;20080;-79
2023/03/16 02:51:56;;;;;;;17.85;7.38;;;;;;;-1.54;100.00;100921.88;5052625;28;20037;-80
2023/03/16 02:54:23;;;;;;;14.77;7.20;;;;;;;-1.62;100.00;100921.06;5034867;28;20540;-79
2023/03/16 02:56:50;;;;;;;23.45;9.15;;;;;;;-1.61;100.00;100923.47;5034655;28;20382;-79
2023/03/16 02:59:17;;;;;;;17.63;8.38;;;;;;;-1.65;100.00;100919.84;5052395;28;20433;-79
2023/03/16 03:01:43;;;;;;;17.00;7.93;;;;;;;-1.63;100.00;100927.88;5051407;28;20044;-80
2023/03/16 03:04:09;;;;;;;17.33;8.32;;;;;;;-1.69;100.00;100921.03;5051326;28;20454;-80
2023/03/16 03:06:47;;;;;;;15.45;7.03;;;;;;;-1.72;100.00;100924.63;5051441;28;20482;-78
2023/03/16 03:09:13;;;;;;;20.02;8.02;;;;;;;-1.73;100.00;100929.44;5052651;28;20049;-79
2023/03/16 03:11:40;;;;;;;15.02;7.40;;;;;;;-1.89;100.00;100912.16;5051281;28;20021;-79
2023/03/16 03:14:06;;;;;;;16.42;8.25;;;;;;;-1.90;100.00;100909.75;5053097;28;20040;-79
2023/03/16 03:16:32;;;;;;;13.25;7.45;;;;;;;-1.81;100.00;100933.41;5056548;28;20147;-81
2023/03/16 03:18:59;;;;;;;13.32;8.02;;;;;;;-1.81;100.00;100936.19;5056464;28;20398;-81
2023/03/16 03:21:26;;;;;;;18.35;8.32;;;;;;;-1.83;100.00;100937.78;5054922;28;20032;-80
2023/03/16 03:23:52;;;;;;;17.27;7.72;;;;;;;-1.87;100.00;100943.38;5056184;28;20104;-80
2023/03/16 03:26:18;;;;;;;15.10;6.93;;;;;;;-1.89;100.00;100942.94;5056094;28;20025;-81
2023/03/16 03:28:45;;;;;;;15.15;8.07;;;;;;;-1.94;100.00;100946.13;5054936;28;20040;-79
2023/03/16 03:31:20;;;;;;;21.83;7.55;;;;;;;-1.97;100.00;100949.72;5055236;28;20028;-80
2023/03/16 03:33:50;;;;;;;15.25;7.38;;;;;;;-1.96;100.00;100954.13;5038866;28;20041;-80
2023/03/16 03:36:16;;;;;;;16.98;8.57;;;;;;;-2.00;100.00;100950.50;5057540;28;20025;-81
2023/03/16 03:38:43;;;;;;;15.27;7.30;;;;;;;-2.04;100.00;100950.47;5056284;28;20024;-80
2023/03/16 03:41:08;;;;;;;15.55;8.05;;;;;;;-2.03;100.00;100943.69;5054832;28;20104;-80
2023/03/16 03:43:49;;;;;;;17.17;7.72;;;;;;;-2.03;100.00;100949.28;5056069;28;20025;-79
2023/03/16 03:46:16;;;;;;;17.15;7.80;;;;;;;-1.98;100.00;100953.69;5054713;28;20066;-79
2023/03/16 03:48:42;;;;;;;18.52;7.68;;;;;;;-1.93;100.00;100947.72;5055480;28;20488;-78
2023/03/16 03:51:09;;;;;;;15.25;6.95;;;;;;;-1.89;100.00;100950.53;5055940;28;20064;-80
2023/03/16 03:53:35;;;;;;;13.52;7.60;;;;;;;-1.94;100.00;100951.72;5065527;28;20021;-79
2023/03/16 03:56:01;;;;;;;17.98;8.90;;;;;;;-1.88;100.00;100955.75;5073865;28;20465;-79
2023/03/16 03:58:28;;;;;;;17.77;6.80;;;;;;;-1.87;100.00;100956.56;5074199;28;20020;-78
2023/03/16 04:00:53;;;;;;;15.77;7.32;;;;;;;-1.90;100.00;100955.34;5070559;28;20059;-80
2023/03/16 04:03:18;;;;;;;14.18;6.50;;;;;;;-1.94;100.00;100968.53;5072502;28;20025;-79
2023/03/16 04:05:44;;;;;;;18.38;7.40;;;;;;;-1.98;100.00;100964.91;5072500;28;20033;-80
2023/03/16 04:08:10;;;;;;;18.35;9.23;;;;;;;-2.00;100.00;100968.09;5068519;28;20478;-80
2023/03/16 04:10:38;;;;;;;16.95;9.77;;;;;;;-2.09;100.00;100959.22;5055489;28;20033;-79
2023/03/16 04:13:05;;;;;;;16.80;7.40;;;;;;;-2.00;100.00;100973.69;5055683;28;20036;-79
2023/03/16 04:15:31;;;;;;;18.90;8.57;;;;;;;-2.02;100.00;100973.28;5055624;28;20021;-77
2023/03/16 04:18:05;;;;;;;20.33;8.40;;;;;;;-2.07;100.00;100968.06;5037699;28;20036;-82
2023/03/16 04:20:30;;;;;;;16.27;8.07;;;;;;;-2.12;100.00;100973.22;5055812;28;20128;-81
2023/03/16 04:22:57;;;;;;;14.45;7.22;;;;;;;-2.21;100.00;100965.16;5055565;28;20398;-80
2023/03/16 04:25:29;;;;;;;15.02;8.00;;;;;;;-2.15;100.00;100974.00;5055224;28;20055;-81
2023/03/16 04:27:57;;;;;;;13.05;6.93;;;;;;;-2.18;100.00;100975.56;5055012;28;20086;-82
2023/03/16 04:30:23;;;;;;;12.63;6.75;;;;;;;-2.22;100.00;100985.94;5055394;28;20120;-81
2023/03/16 04:32:48;;;;;;;17.42;7.43;;;;;;;-2.22;100.00;100990.75;5054974;28;20082;-80
2023/03/16 04:35:17;;;;;;;19.55;7.07;;;;;;;-2.20;100.00;100991.94;5037022;28;20108;-81
2023/03/16 04:37:44;;;;;;;13.88;7.22;;;;;;;-2.16;100.00;100978.81;5055087;28;20028;-81
2023/03/16 04:40:16;;;;;;;20.08;7.50;;;;;;;-2.17;100.00;100984.78;5053699;28;20475;-81
2023/03/16 04:42:49;;;;;;;13.52;6.53;;;;;;;-2.19;100.00;100996.34;5053410;28;20028;-81
2023/03/16 04:45:19;;;;;;;14.52;6.88;;;;;;;-2.27;100.00;100989.09;5053458;28;20470;-80
2023/03/16 04:47:45;;;;;;;15.95;7.70;;;;;;;-2.25;100.00;100991.53;5053012;28;20052;-80
2023/03/16 04:50:11;;;;;;;15.77;7.55;;;;;;;-2.23;100.00;100998.31;5054416;28;20104;-81
2023/03/16 04:52:51;;;;;;;16.95;7.53;;;;;;;-2.18;100.00;101005.56;5053152;28;20039;-81
2023/03/16 04:55:17;;;;;;;11.80;7.53;;;;;;;-2.24;100.00;100995.91;5054232;28;20546;-82
2023/03/16 04:57:42;;;;;;;17.67;6.85;;;;;;;-2.25;100.00;101003.53;5054255;28;20049;-82
2023/03/16 05:00:18;;;;;;;13.48;7.95;;;;;;;-2.20;100.00;101000.34;5052793;28;20021;-82
2023/03/16 05:02:49;;;;;;;15.75;6.72;;;;;;;-2.25;100.00;100997.13;5054361;28;20025;-81
2023/03/16 05:05:17;;;;;;;14.70;8.00;;;;;;;-2.26;100.00;101004.72;5036516;28;20033;-81
2023/03/16 05:07:44;;;;;;;20.70;8.13;;;;;;;-2.28;100.00;101001.47;5035511;28;20438;-80
2023/03/16 05:10:12;;;;;;;17.35;7.53;;;;;;;-2.18;100.00;101011.97;5051181;28;20365;-81
2023/03/16 05:12:39;;;;;;;13.23;6.68;;;;;;;-2.18;100.00;101009.16;5053039;28;20391;-80
2023/03/16 05:15:08;;;;;;;18.00;7.05;;;;;;;-2.13;100.00;101011.59;5053867;28;20100;-80
2023/03/16 05:17:34;;;;;;;14.38;7.93;;;;;;;-2.18;100.00;101008.34;5036426;28;20057;-81
2023/03/16 05:20:00;;;;;;;16.10;6.78;;;;;;;-2.17;100.00;101010.78;5036006;28;20029;-80
2023/03/16 05:22:25;;;;;;;15.02;6.60;;;;;;;-2.10;100.00;101019.19;5054283;28;20044;-81
2023/03/16 05:24:51;;;;;;;14.52;6.15;;;;;;;-2.12;100.00;101004.81;5054342;28;20024;-80
2023/03/16 05:27:17;;;;;;;13.43;7.05;;;;;;;-2.16;100.00;101003.19;5051518;28;20037;-81
2023/03/16 05:29:47;;;;;;;21.25;9.88;;;;;;;-2.03;100.00;101012.88;5052689;28;20083;-80
2023/03/16 05:32:13;;;;;;;14.52;7.55;;;;;;;-2.02;100.00;101012.47;5053315;28;20070;-78
2023/03/16 05:34:42;;;;;;;13.48;6.90;;;;;;;-1.86;100.00;101019.78;5051885;28;20450;-80
2023/03/16 05:37:12;;;;;;;12.40;6.25;;;;;;;-1.75;100.00;101009.44;5052843;28;20367;-78
2023/03/16 05:39:42;;;;;;;14.70;7.07;;;;;;;-1.75;100.00;101013.03;5051097;28;20042;-78
2023/03/16 05:42:09;;;;;;;13.85;6.20;;;;;;;-1.66;100.00;101027.50;5035201;28;20055;-81
2023/03/16 05:44:36;;;;;;;13.43;6.68;;;;;;;-1.61;100.00;101020.72;5051894;28;20033;-80
2023/03/16 05:47:02;;;;;;;18.42;7.03;;;;;;;-1.52;100.00;101026.78;5053314;28;20037;-80
2023/03/16 05:49:30;;;;;;;16.25;7.90;;;;;;;-1.41;100.00;101024.03;5053578;28;20044;-81
2023/03/16 05:51:57;;;;;;;8.65;6.22;;;;;;;-1.30;100.00;101022.88;5053306;28;20546;-77
2023/03/16 05:54:23;;;;;;;11.98;5.93;;;;;;;-1.21;100.00;101025.31;5053485;28;20025;-77
2023/03/16 05:56:49;;;;;;;13.90;6.40;;;;;;;-1.05;100.00;101028.56;5052020;28;20032;-75
2023/03/16 05:59:16;;;;;;;15.02;5.65;;;;;;;-0.95;100.00;101035.41;5053634;28;20093;-76
2023/03/16 06:01:43;;;;;;;9.15;4.78;;;;;;;-0.82;100.00;101031.84;5052911;28;20493;-77
2023/03/16 06:04:10;;;;;;;13.55;6.40;;;;;;;-0.57;100.00;101031.09;5052934;28;20573;-77
2023/03/16 06:06:50;;;;;;;13.43;5.55;;;;;;;0.72;100.00;101036.13;5052888;28;20032;-76
2023/03/16 06:09:16;;;;;;;13.85;5.03;;;;;;;2.58;100.00;101035.94;5052343;28;20033;-76
2023/03/16 06:11:43;;;;;;;5.55;4.18;;;;;;;4.46;100.00;101033.91;5053198;28;20025;-76
2023/03/16 06:14:08;;;;;;;7.28;4.28;;;;;;;6.07;100.00;101024.25;5052867;28;20032;-75
2023/03/16 06:16:34;;;;;;;13.45;5.00;;;;;;;7.47;100.00;101026.34;5052811;28;20394;-75
2023/03/16 06:19:00;;;;;;;9.10;4.10;;;;;;;8.89;100.00;101020.75;5051554;28;20025;-77
2023/03/16 06:21:26;;;;;;;8.70;4.25;;;;;;;10.19;100.00;101040.41;5053312;28;20028;-77
2023/03/16 06:24:08;;;;;;;7.05;3.65;;;;;;;11.53;97.93;101036.44;5052714;28;20346;-88
2023/03/16 06:26:35;;;;;;;12.82;5.07;;;;;;;12.54;85.37;101048.22;5050798;28;20428;-81
2023/03/16 06:29:00;;;;;;;11.80;4.75;;;;;;;13.13;71.99;101057.78;5050960;28;20039;-84
2023/03/16 06:31:27;;;;;;;8.88;4.93;;;;;;;12.48;69.56;101084.56;5052102;28;20464;-79
2023/03/16 06:33:53;;;;;;;10.43;4.60;;;;;;;12.04;69.28;101073.63;5050998;28;20037;-80
2023/03/16 06:36:19;;;;;;;10.82;4.05;;;;;;;12.95;68.83;101073.06;5051785;28;20048;-85
2023/03/16 06:38:44;;;;;;;8.68;4.68;;;;;;;14.01;59.42;101077.09;5036871;28;20106;-81
2023/03/16 06:41:09;;;;;;;15.88;4.82;;;;;;;15.08;55.18;101086.72;5063687;28;20017;-84
2023/03/16 06:43:36;;;;;;;8.73;4.40;;;;;;;16.21;51.52;101078.63;5064608;28;20075;-81
2023/03/16 06:46:16;;;;;;;7.53;4.07;;;;;;;17.38;46.69;101075.03;5056605;28;20472;-82
2023/03/16 06:48:43;;;;;;;8.82;3.80;;;;;;;18.14;42.73;101071.94;5053079;28;20374;-82
2023/03/16 06:51:10;;;;;;;6.82;3.70;;;;;;;18.68;40.22;101083.97;5055794;28;20474;-81
2023/03/16 06:53:41;;;;;;;9.85;3.85;;;;;;;19.11;36.81;101075.66;5057239;28;20408;-81
2023/03/16 06:56:08;;;;;;;8.82;3.22;;;;;;;19.72;36.25;101080.28;5058228;28;20383;-81
2023/03/16 06:58:34;;;;;;;8.55;3.85;;;;;;;20.29;33.86;101076.41;5041415;28;20066;-82
2023/03/16 07:01:07;;;;;;;10.73;4.53;;;;;;;20.75;33.20;101078.28;5055887;28;20017;-76
2023/03/16 07:03:33;;;;;;;10.68;3.40;;;;;;;21.52;32.78;101086.56;5056340;28;20029;-75
2023/03/16 07:06:00;;;;;;;7.85;2.92;;;;;;;22.18;32.04;101078.91;5056533;28;20028;-74
2023/03/16 07:08:26;;;;;;;10.70;4.18;;;;;;;22.08;29.06;101069.78;5056908;28;20404;-81
2023/03/16 07:10:53;;;;;;;9.73;3.47;;;;;;;22.49;30.17;101069.31;5055044;28;20490;-75
2023/03/16 07:13:19;;;;;;;8.48;3.33;;;;;;;22.96;28.88;101074.53;5056536;28;20025;-78
2023/03/16 07:15:45;;;;;;;6.65;2.60;;;;;;;23.22;27.87;101070.75;5038379;28;20060;-76
2023/03/16 07:18:14;;;;;;;8.38;3.08;;;;;;;23.35;27.69;101073.66;5056989;28;20064;-75
2023/03/16 07:20:41;;;;;;;5.57;2.88;;;;;;;23.34;26.45;101075.00;5054963;28;20478;-77
2023/03/16 07:23:07;;;;;;;7.53;2.83;;;;;;;23.88;27.30;101064.72;5055348;28;20106;-76
2023/03/16 07:25:34;;;;;;;7.10;2.85;;;;;;;24.64;27.02;101066.94;5056118;28;20416;-76
2023/03/16 07:28:00;;;;;;;7.93;3.28;;;;;;;24.71;25.83;101055.88;5056294;28;20071;-76
2023/03/16 07:30:28;;;;;;;8.95;3.63;;;;;;;24.73;25.17;101068.59;5056121;28;20090;-74
2023/03/16 07:32:58;;;;;;;6.75;3.38;;;;;;;24.68;25.07;101081.22;5056051;28;20486;-75
2023/03/16 07:35:25;;;;;;;5.53;2.65;;;;;;;25.06;25.09;101081.47;5054629;28;20132;-76
2023/03/16 07:37:50;;;;;;;6.00;3.10;;;;;;;25.49;25.44;101081.50;5055652;28;20371;-78
2023/03/16 07:40:33;;;;;;;7.05;3.00;;;;;;;25.37;23.81;101082.41;5054529;28;20561;-79
2023/03/16 07:43:00;;;;;;;5.25;2.10;;;;;;;25.45;24.16;101080.28;5053296;28;20029;-78
2023/03/16 07:45:26;;;;;;;6.40;2.70;;;;;;;26.04;23.93;101080.25;5055827;28;20086;-78
2023/03/16 07:47:55;;;;;;;6.55;2.28;;;;;;;26.77;24.55;101082.25;5054793;28;20056;-76
2023/03/16 07:50:21;;;;;;;9.20;2.20;;;;;;;27.68;23.46;101081.94;5052806;28;20087;-76
2023/03/16 07:52:47;;;;;;;6.18;2.10;;;;;;;28.55;23.87;101078.00;5044885;28;20049;-77
2023/03/16 07:55:12;;;;;;;5.50;2.70;;;;;;;28.92;22.14;101072.34;5033782;28;20040;-76
2023/03/16 07:57:41;;;;;;;7.60;2.58;;;;;;;29.32;21.78;101069.94;5033535;28;20028;-76
2023/03/16 08:00:09;;;;;;;12.98;4.80;;;;;;;29.11;20.90;101066.66;5031209;28;20045;-77
2023/03/16 08:02:40;;;;;;;7.10;3.03;;;;;;;29.29;20.56;101071.13;5032289;28;20124;-77
2023/03/16 08:05:11;;;;;;;8.75;3.08;;;;;;;28.89;20.00;101065.47;5045578;28;20482;-78
2023/03/16 08:07:37;;;;;;;10.05;3.38;;;;;;;28.79;20.75;101073.44;5048294;28;20061;-79
2023/03/16 08:10:04;;;;;;;8.25;3.10;;;;;;;28.53;19.77;101071.94;5054046;28;20026;-79
2023/03/16 08:12:30;;;;;;;8.30;3.00;;;;;;;27.75;19.92;101069.34;5042801;28;20029;-77
2023/03/16 08:14:55;;;;;;;12.50;3.38;;;;;;;27.87;20.26;101066.72;5034991;28;20037;-75
2023/03/16 08:17:21;;;;;;;8.15;2.80;;;;;;;28.51;20.39;101074.69;5034429;28;20041;-79
2023/03/16 08:19:47;;;;;;;11.23;3.63;;;;;;;27.69;20.61;101065.88;5037452;28;20029;-80
2023/03/16 08:22:13;;;;;;;6.65;2.70;;;;;;;27.49;20.74;101075.78;5031479;28;20144;-81
2023/03/16 08:24:41;;;;;;;7.45;2.83;;;;;;;27.45;20.75;101081.28;5042281;28;20028;-81
2023/03/16 08:27:07;;;;;;;7.20;2.72;;;;;;;27.45;20.28;101078.34;5053142;28;20064;-80
2023/03/16 08:29:34;;;;;;;6.35;2.47;;;;;;;28.19;20.77;101084.38;5053127;28;20462;-79
2023/03/16 08:31:59;;;;;;;7.68;2.70;;;;;;;28.44;20.10;101088.06;5052388;28;20112;-82
2023/03/16 08:34:27;;;;;;;7.05;2.80;;;;;;;28.80;19.94;101083.81;5053701;28;20403;-81
2023/03/16 08:36:55;;;;;;;7.18;2.47;;;;;;;28.42;20.20;101076.13;5052535;28;20041;-80
2023/03/16 08:39:22;;;;;;;7.57;2.25;;;;;;;26.95;20.57;101092.00;5054042;28;20036;-76
2023/03/16 08:41:47;;;;;;;4.88;2.33;;;;;;;25.08;22.30;101075.06;5053495;28;20044;-78
2023/03/16 08:44:13;;;;;;;7.85;2.38;;;;;;;23.63;23.54;101078.88;5061858;28;20419;-78
2023/03/16 08:46:39;;;;;;;10.27;3.10;;;;;;;23.24;24.01;101100.16;5072718;28;20128;-77
2023/03/16 08:49:05;;;;;;;10.90;2.88;;;;;;;23.39;23.79;101103.28;5023253;28;1412069;-79
2023/03/16 08:51:33;;;;;;;13.25;3.22;;;;;;;23.75;24.16;101107.22;5074705;28;20049;-77
2023/03/16 08:53:59;;;;;;;8.18;3.25;;;;;;;23.84;24.48;101102.25;5073762;28;20118;-79
2023/03/16 08:56:27;;;;;;;9.55;3.33;;;;;;;23.95;24.35;101105.69;5073042;28;20354;-77
2023/03/16 08:58:54;;;;;;;9.50;2.65;;;;;;;22.35;24.56;101114.34;5072154;28;20100;-77
2023/03/16 09:01:23;;;;;;;6.28;1.90;;;;;;;21.31;25.35;101109.56;5073459;28;20024;-76
2023/03/16 09:04:01;;;;;;;10.23;2.80;;;;;;;20.48;25.93;101122.94;5073014;28;20033;-76
2023/03/16 09:06:27;;;;;;;6.55;2.30;;;;;;;19.52;27.06;101119.16;5073759;28;20032;-77
2023/03/16 09:08:54;;;;;;;6.32;2.40;;;;;;;18.60;29.14;101117.69;5054849;28;20077;-77
2023/03/16 09:11:22;;;;;;;7.30;1.92;;;;;;;17.68;29.82;101112.97;5072628;28;20025;-77
2023/03/16 09:13:48;;;;;;;9.02;2.33;;;;;;;16.79;31.44;101126.28;5073065;28;20040;-78
2023/03/16 09:16:18;;;;;;;7.70;2.35;;;;;;;15.99;32.63;101129.09;5071482;28;20036;-77
2023/03/16 09:18:46;;;;;;;8.35;2.47;;;;;;;14.87;34.40;101099.56;5056249;28;20025;-77
2023/03/16 09:21:13;;;;;;;8.18;2.30;;;;;;;14.41;34.78;101129.75;5073543;28;20397;-76
2023/03/16 09:23:43;;;;;;;12.98;2.33;;;;;;;13.83;35.44;101113.38;5073370;28;20032;-76
2023/03/16 09:26:11;;;;;;;7.38;2.45;;;;;;;14.06;36.15;101131.78;5072346;28;20039;-76
2023/03/16 09:28:40;;;;;;;6.88;2.75;;;;;;;14.63;36.27;101140.81;5056376;28;20037;-77
2023/03/16 09:31:22;;;;;;;10.60;2.60;;;;;;;15.30;36.15;101149.53;5072627;28;20028;-77
2023/03/16 09:33:47;;;;;;;9.05;2.38;;;;;;;15.81;34.99;101140.94;5074165;28;20044;-76
2023/03/16 09:36:14;;;;;;;8.60;2.17;;;;;;;16.04;32.80;101145.63;5073627;28;20385;-76
2023/03/16 09:38:41;;;;;;;8.70;2.00;;;;;;;15.71;33.00;101139.56;5055107;28;20405;-77
2023/03/16 09:41:38;;;;;;;5.30;2.47;;;;;;;15.75;33.53;101142.22;5073556;28;20469;-76
2023/03/16 09:44:26;;;;;;;9.45;2.58;;;;;;;15.43;34.08;101147.06;5073278;28;20036;-76
2023/03/16 09:46:53;;;;;;;9.27;2.38;;;;;;;15.17;34.47;101138.38;5072978;28;20024;-76
2023/03/16 09:49:24;;;;;;;8.85;2.55;;;;;;;15.05;35.17;101136.66;5071551;28;20048;-76
2023/03/16 09:52:16;;;;;;;5.80;1.60;;;;;;;15.28;34.52;101150.03;5071867;28;20052;-76
2023/03/16 09:54:58;;;;;;;7.70;1.95;;;;;;;15.25;34.22;101134.56;5072942;28;20033;-76
2023/03/16 09:57:41;;;;;;;7.20;1.83;;;;;;;14.73;33.24;101150.09;5073297;28;20032;-76
2023/03/16 10:00:12;;;;;;;3.20;1.50;;;;;;;14.12;33.77;101140.50;5071808;28;20043;-74
2023/03/16 10:02:51;;;;;;;8.63;2.17;;;;;;;13.32;34.19;101141.63;5072819;28;20039;-76
2023/03/16 10:05:20;;;;;;;8.77;1.65;;;;;;;12.30;35.19;101128.44;5073721;28;20194;-83
2023/03/16 10:08:02;;;;;;;5.60;1.88;;;;;;;11.85;37.68;101149.44;5056571;28;20043;-79
2023/03/16 10:10:57;;;;;;;9.18;2.22;;;;;;;11.50;38.40;101148.22;5071624;28;20078;-77
2023/03/16 10:13:43;;;;;;;16.90;1.92;;;;;;;11.60;38.85;101152.69;5072226;28;20044;-78
2023/03/16 10:16:31;;;;;;;4.88;1.60;;;;;;;11.87;38.36;101161.19;5072728;28;20032;-80
2023/03/16 10:19:18;;;;;;;3.38;1.92;;;;;;;12.30;38.22;101171.41;5072341;28;20072;-76
2023/03/16 10:21:46;;;;;;;7.55;1.52;;;;;;;12.53;36.41;101162.09;5057521;28;20028;-78
2023/03/16 10:24:33;;;;;;;5.28;1.77;;;;;;;12.19;36.41;101162.53;5058088;28;20066;-78
2023/03/16 10:27:00;;;;;;;9.07;1.80;;;;;;;11.60;37.59;101136.28;5073963;28;20028;-80
2023/03/16 10:29:42;;;;;;;7.72;1.88;;;;;;;11.71;37.85;101159.50;5073015;28;20126;-78
2023/03/16 10:32:15;;;;;;;9.25;3.05;;;;;;;11.75;37.57;101157.25;5072820;28;20086;-81
2023/03/16 10:34:48;;;;;;;4.15;2.28;;;;;;;11.78;37.99;101159.16;5072598;28;20115;-80
2023/03/16 10:37:13;;;;;;;7.47;2.00;;;;;;;11.85;38.33;101158.03;5069265;28;20036;-81
2023/03/16 10:39:41;;;;;;;8.38;2.50;;;;;;;12.14;40.68;101157.47;5071399;28;20024;-79
2023/03/16 10:42:20;;;;;;;7.32;2.30;;;;;;;12.41;38.40;101134.44;5071516;28;20443;-78
2023/03/16 10:44:46;;;;;;;9.23;2.97;;;;;;;12.62;37.15;101139.09;5070116;28;20454;-79
2023/03/16 10:47:22;;;;;;;4.03;1.67;;;;;;;12.39;38.31;101154.22;5037732;28;20031;-77
2023/03/16 10:49:50;;;;;;;4.93;2.05;;;;;;;12.55;38.44;101150.16;5071540;28;20068;-78
2023/03/16 10:52:41;;;;;;;4.25;1.65;;;;;;;12.93;37.97;101155.16;5071267;28;20156;-77
2023/03/16 10:55:10;;;;;;;7.65;1.90;;;;;;;13.13;37.56;101152.47;5072439;28;20036;-78
2023/03/16 10:57:42;;;;;;;7.45;2.10;;;;;;;13.20;37.49;101152.06;5071027;28;20108;-77
2023/03/16 11:00:14;;;;;;;5.03;1.92;;;;;;;13.01;36.61;101153.50;5037856;28;20056;-77
2023/03/16 11:02:40;;;;;;;5.10;1.75;;;;;;;12.73;36.35;101160.72;5072192;28;20028;-77
2023/03/16 11:05:25;;;;;;;3.90;1.38;;;;;;;12.31;35.41;101152.91;5072308;28;20050;-76
2023/03/16 11:08:13;;;;;;;13.77;2.70;;;;;;;11.78;34.95;101141.19;5072215;28;20038;-77
2023/03/16 11:10:46;;;;;;;11.73;3.30;;;;;;;11.28;36.06;101139.81;5071811;28;20053;-76
2023/03/16 11:13:18;;;;;;;7.85;2.45;;;;;;;10.90;36.94;101151.69;5072160;28;20039;-78
2023/03/16 11:16:29;;;;;;;7.97;1.88;;;;;;;10.38;37.50;101122.03;5054416;28;20060;-78
2023/03/16 11:19:23;;;;;;;5.90;2.45;;;;;;;10.50;39.19;101144.00;5071525;28;20068;-77
2023/03/16 11:21:58;;;;;;;5.32;2.50;;;;;;;10.44;39.55;101142.22;5070749;28;20035;-79
2023/03/16 11:25:01;;;;;;;5.50;2.10;;;;;;;10.35;39.96;101139.34;5070878;28;20125;-78
2023/03/16 11:27:53;;;;;;;7.68;2.67;;;;;;;10.18;40.59;101138.00;5070904;28;20394;-80
2023/03/16 11:30:19;;;;;;;5.28;1.52;;;;;;;10.09;40.92;101136.69;5070773;28;20028;-79